createdAt,value
2022-12-11T00:00:32.434Z,1.8
2022-12-11T00:02:37.953Z,1.8
2022-12-11T00:04:35.292Z,1.8
2022-12-11T00:06:32.768Z,1.8
2022-12-11T00:08:30.287Z,1.9
2022-12-11T00:12:25.239Z,1.9
2022-12-11T00:14:22.732Z,2
2022-12-11T00:16:28.187Z,1.9
2022-12-11T00:18:25.606Z,1.9
2022-12-11T00:22:20.586Z,1.8
2022-12-11T00:24:18.064Z,1.9
2022-12-11T00:26:15.603Z,1.9
2022-12-11T00:28:13.096Z,1.8
2022-12-11T00:30:18.469Z,1.8
2022-12-11T00:32:16.031Z,1.8
2022-12-11T00:34:13.485Z,1.8
2022-12-11T00:37:13.805Z,1.9
2022-12-11T00:39:11.167Z,1.9
2022-12-11T00:41:08.648Z,1.9
2022-12-11T00:43:14.069Z,1.9
2022-12-11T00:47:09.038Z,2
2022-12-11T00:49:06.564Z,2
2022-12-11T00:51:04.037Z,2
2022-12-11T00:53:01.531Z,2
2022-12-11T00:54:59.031Z,2.1
2022-12-11T00:57:04.395Z,2.1
2022-12-11T00:59:01.889Z,2.1
2022-12-11T01:00:59.408Z,2.1
2022-12-11T01:02:56.956Z,2
2022-12-11T01:04:54.358Z,2.1
2022-12-11T01:08:49.356Z,2.2
2022-12-11T01:10:54.786Z,2
2022-12-11T01:14:49.733Z,2.1
2022-12-11T01:16:47.367Z,2
2022-12-11T01:18:44.748Z,2
2022-12-11T01:20:42.223Z,2
2022-12-11T01:22:39.746Z,2
2022-12-11T01:24:45.219Z,2
2022-12-11T01:29:42.911Z,2
2022-12-11T01:31:40.424Z,2
2022-12-11T01:33:37.914Z,2
2022-12-11T01:35:35.431Z,2
2022-12-11T01:37:40.820Z,2
2022-12-11T01:39:38.321Z,2.1
2022-12-11T01:41:35.809Z,2
2022-12-11T01:45:30.815Z,2
2022-12-11T01:47:28.317Z,2
2022-12-11T01:55:26.204Z,2.1
2022-12-11T01:57:23.749Z,2.1
2022-12-11T01:59:21.240Z,2.1
2022-12-11T02:01:18.821Z,2.1
2022-12-11T02:03:16.213Z,2.2
2022-12-11T02:05:21.619Z,2.2
2022-12-11T02:07:19.117Z,2.3
2022-12-11T02:09:16.607Z,2.3
2022-12-11T02:15:09.494Z,2.4
2022-12-11T02:17:06.606Z,2.5
2022-12-11T02:19:11.994Z,2.5
2022-12-11T02:21:11.064Z,2.5
2022-12-11T02:24:11.231Z,2.4
2022-12-11T02:32:09.000Z,2.4
2022-12-11T02:34:06.504Z,2.4
2022-12-11T02:36:04.014Z,2.4
2022-12-11T02:41:56.487Z,2.4
2022-12-11T02:43:54.012Z,2.4
2022-12-11T02:45:59.471Z,2.4
2022-12-11T02:47:56.892Z,2.5
2022-12-11T02:49:54.426Z,2.4
2022-12-11T02:51:52.022Z,2.4
2022-12-11T02:53:49.535Z,2.4
2022-12-11T02:55:47.046Z,2.3
2022-12-11T02:57:44.537Z,2.4
2022-12-11T02:59:49.925Z,2.4
2022-12-11T03:01:47.551Z,2.4
2022-12-11T03:03:44.952Z,2.4
2022-12-11T03:09:37.479Z,2.2
2022-12-11T03:11:34.968Z,2.3
2022-12-11T03:13:40.401Z,2.3
2022-12-11T03:17:35.409Z,2.4
2022-12-11T03:29:47.628Z,2.4
2022-12-11T03:31:45.121Z,2.4
2022-12-11T03:33:42.653Z,2.4
2022-12-11T03:35:40.148Z,2.5
2022-12-11T03:37:37.678Z,2.4
2022-12-11T03:39:43.062Z,2.4
2022-12-11T03:41:40.570Z,2.5
2022-12-11T03:43:38.088Z,2.5
2022-12-11T03:45:35.592Z,2.4
2022-12-11T03:47:33.094Z,2.5
2022-12-11T03:49:30.595Z,2.5
2022-12-11T03:51:28.124Z,2.5
2022-12-11T03:53:33.522Z,2.5
2022-12-11T03:57:28.490Z,2.5
2022-12-11T03:59:25.995Z,2.4
2022-12-11T04:03:21.026Z,2.5
2022-12-11T04:05:18.518Z,2.4
2022-12-11T04:07:23.931Z,2.3
2022-12-11T04:09:21.532Z,2.4
2022-12-11T04:11:19.062Z,2.5
2022-12-11T04:12:21.752Z,2.4
2022-12-11T04:14:19.247Z,2.4
2022-12-11T04:16:16.794Z,2.6
2022-12-11T04:18:14.215Z,2.5
2022-12-11T04:20:19.634Z,2.5
2022-12-11T04:22:17.122Z,2.5
2022-12-11T04:24:14.651Z,2.4
2022-12-11T04:26:12.120Z,2.5
2022-12-11T04:28:09.645Z,2.5
2022-12-11T04:30:07.174Z,2.5
2022-12-11T04:32:04.658Z,2.5
2022-12-11T04:36:07.553Z,2.6
2022-12-11T04:38:05.055Z,2.5
2022-12-11T04:40:02.577Z,2.5
2022-12-11T04:42:00.111Z,2.5
2022-12-11T04:43:57.595Z,2.6
2022-12-11T04:45:55.113Z,2.5
2022-12-11T04:48:00.489Z,2.5
2022-12-11T04:49:58.006Z,2.6
2022-12-11T04:51:55.512Z,2.5
2022-12-11T04:57:48.018Z,2.6
2022-12-11T04:59:45.532Z,2.7
2022-12-11T05:01:50.998Z,2.6
2022-12-11T05:03:48.452Z,2.6
2022-12-11T05:05:45.981Z,2.6
2022-12-11T05:06:48.758Z,2.6
2022-12-11T05:08:46.290Z,2.5
2022-12-11T05:10:49.840Z,2.5
2022-12-11T05:14:46.817Z,2.5
2022-12-11T05:16:44.329Z,2.6
2022-12-11T05:22:36.860Z,2.6
2022-12-11T05:24:34.336Z,2.7
2022-12-11T05:26:31.851Z,2.7
2022-12-11T05:28:37.251Z,2.6
2022-12-11T05:30:34.767Z,2.5
2022-12-11T05:32:32.254Z,2.5
2022-12-11T05:34:29.769Z,2.6
2022-12-11T05:36:27.272Z,2.5
2022-12-11T05:38:24.802Z,2.6
2022-12-11T05:40:22.335Z,2.5
2022-12-11T05:42:29.177Z,2.5
2022-12-11T05:44:25.140Z,2.5
2022-12-11T05:46:22.690Z,2.6
2022-12-11T05:52:15.193Z,2.6
2022-12-11T05:54:12.689Z,2.8
2022-12-11T05:56:18.095Z,2.7
2022-12-11T05:58:15.635Z,2.6
2022-12-11T06:00:13.118Z,2.6
2022-12-11T06:01:15.813Z,2.7
2022-12-11T06:09:13.771Z,2.6
2022-12-11T06:13:08.760Z,2.7
2022-12-11T06:15:06.270Z,2.7
2022-12-11T06:17:03.780Z,2.7
2022-12-11T06:19:01.328Z,2.6
2022-12-11T06:20:58.856Z,2.6
2022-12-11T06:23:04.233Z,2.7
2022-12-11T06:25:01.768Z,2.7
2022-12-11T06:26:59.263Z,2.7
2022-12-11T06:28:56.777Z,2.8
2022-12-11T06:30:54.290Z,2.7
2022-12-11T06:34:49.328Z,2.8
2022-12-11T06:36:54.772Z,2.8
2022-12-11T06:38:52.367Z,2.8
2022-12-11T06:40:49.875Z,2.8
2022-12-11T06:44:44.899Z,2.8
2022-12-11T06:46:42.418Z,2.7
2022-12-11T06:48:39.941Z,2.8
2022-12-11T06:50:45.362Z,2.7
2022-12-11T06:52:42.866Z,2.7
2022-12-11T06:54:40.380Z,2.8
2022-12-11T06:56:57.713Z,2.9
2022-12-11T06:58:55.184Z,2.8
2022-12-11T07:00:52.712Z,2.9
2022-12-11T07:02:58.109Z,2.9
2022-12-11T07:04:55.638Z,2.8
2022-12-11T07:06:53.139Z,2.8
2022-12-11T07:08:50.661Z,2.7
2022-12-11T07:10:48.185Z,2.8
2022-12-11T07:12:45.691Z,2.8
2022-12-11T07:14:43.212Z,2.8
2022-12-11T07:16:48.645Z,2.8
2022-12-11T07:18:46.145Z,2.8
2022-12-11T07:20:43.649Z,2.7
2022-12-11T07:22:46.191Z,2.6
2022-12-11T07:24:38.808Z,2.7
2022-12-11T07:26:36.314Z,2.7
2022-12-11T07:28:33.826Z,2.7
2022-12-11T07:30:39.245Z,2.7
2022-12-11T07:32:36.810Z,2.8
2022-12-11T07:34:34.281Z,2.7
2022-12-11T07:38:29.318Z,2.8
2022-12-11T07:40:26.920Z,2.8
2022-12-11T07:42:24.333Z,2.9
2022-12-11T07:44:29.753Z,2.7
2022-12-11T07:46:27.283Z,2.8
2022-12-11T07:48:24.791Z,2.9
2022-12-11T07:49:27.492Z,2.8
2022-12-11T07:51:25.026Z,2.9
2022-12-11T07:53:22.629Z,2.9
2022-12-11T07:55:20.169Z,2.8
2022-12-11T07:57:25.581Z,2.8
2022-12-11T08:05:17.116Z,2.8
2022-12-11T08:09:15.951Z,2.8
2022-12-11T08:11:17.551Z,2.7
2022-12-11T08:13:15.058Z,2.8
2022-12-11T08:15:12.832Z,2.9
2022-12-11T08:17:10.088Z,2.9
2022-12-11T08:19:07.569Z,2.8
2022-12-11T08:21:05.098Z,2.6
2022-12-11T08:23:02.593Z,2.7
2022-12-11T08:25:08.309Z,2.8
2022-12-11T08:27:05.493Z,2.8
2022-12-11T08:29:02.988Z,2.7
2022-12-11T08:31:00.621Z,2.7
2022-12-11T08:32:58.010Z,2.7
2022-12-11T08:34:55.528Z,2.7
2022-12-11T08:36:53.024Z,2.7
2022-12-11T08:38:58.432Z,2.6
2022-12-11T08:40:56.049Z,2.7
2022-12-11T08:42:53.557Z,2.7
2022-12-11T08:43:56.242Z,2.7
2022-12-11T08:49:48.748Z,2.7
2022-12-11T08:53:51.766Z,2.6
2022-12-11T08:55:49.284Z,2.6
2022-12-11T08:59:44.315Z,2.5
2022-12-11T09:01:41.838Z,2.5
2022-12-11T09:03:39.322Z,2.6
2022-12-11T09:09:39.721Z,2.6
2022-12-11T09:11:37.238Z,2.6
2022-12-11T09:13:34.756Z,2.6
2022-12-11T09:17:29.747Z,2.6
2022-12-11T09:19:35.131Z,2.5
2022-12-11T09:21:32.666Z,2.6
2022-12-11T09:23:30.169Z,2.6
2022-12-11T09:25:27.648Z,2.6
2022-12-11T09:27:25.163Z,2.6
2022-12-11T09:29:22.672Z,2.6
2022-12-11T09:31:20.273Z,2.7
2022-12-11T09:33:25.564Z,2.6
2022-12-11T09:35:23.041Z,2.6
2022-12-11T09:37:20.546Z,2.5
2022-12-11T09:38:23.235Z,2.5
2022-12-11T09:40:20.859Z,2.4
2022-12-11T09:42:18.358Z,2.5
2022-12-11T09:44:15.839Z,2.5
2022-12-11T09:46:24.551Z,2.4
2022-12-11T09:48:18.753Z,2.5
2022-12-11T09:50:16.272Z,2.5
2022-12-11T09:52:13.782Z,2.6
2022-12-11T09:54:11.264Z,2.6
2022-12-11T09:56:08.819Z,2.6
2022-12-11T09:58:06.355Z,2.7
2022-12-11T10:00:11.828Z,2.7
2022-12-11T10:02:09.405Z,2.6
2022-12-11T10:04:06.815Z,2.6
2022-12-11T10:06:05.030Z,2.6
2022-12-11T10:08:01.938Z,2.6
2022-12-11T10:09:59.355Z,2.7
2022-12-11T10:11:57.129Z,2.6
2022-12-11T10:14:02.231Z,2.5
2022-12-11T10:15:59.754Z,2.5
2022-12-11T10:18:02.963Z,2.5
2022-12-11T10:19:54.709Z,2.5
2022-12-11T10:21:52.234Z,2.6
2022-12-11T10:29:50.119Z,2.6
2022-12-11T10:31:47.638Z,2.6
2022-12-11T10:34:14.571Z,2.6
2022-12-11T10:36:12.066Z,2.7
2022-12-11T10:38:09.572Z,2.6
2022-12-11T10:40:14.992Z,2.5
2022-12-11T10:42:12.468Z,2.5
2022-12-11T10:44:09.997Z,2.6
2022-12-11T10:46:07.581Z,2.6
2022-12-11T10:48:05.033Z,2.6
2022-12-11T10:50:02.701Z,2.6
2022-12-11T10:52:00.138Z,2.5
2022-12-11T10:54:07.275Z,2.5
2022-12-11T10:56:03.056Z,2.6
2022-12-11T10:58:00.594Z,2.6
2022-12-11T10:59:58.093Z,2.6
2022-12-11T11:03:53.101Z,2.6
2022-12-11T11:05:50.647Z,2.6
2022-12-11T11:07:56.094Z,2.6
2022-12-11T11:09:53.560Z,2.7
2022-12-11T11:11:51.048Z,2.6
2022-12-11T11:13:48.562Z,2.6
2022-12-11T11:15:46.192Z,2.6
2022-12-11T11:19:41.208Z,2.7
2022-12-11T11:25:41.620Z,2.7
2022-12-11T11:30:39.173Z,2.8
2022-12-11T11:32:36.693Z,2.8
2022-12-11T11:34:42.126Z,2.8
2022-12-11T11:36:39.664Z,2.8
2022-12-11T11:42:32.232Z,3
2022-12-11T11:44:29.760Z,2.9
2022-12-11T11:46:27.335Z,3
2022-12-11T11:48:32.656Z,2.9
2022-12-11T11:50:30.242Z,2.9
2022-12-11T11:52:27.768Z,2.9
2022-12-11T11:54:25.272Z,2.9
2022-12-11T11:56:22.781Z,2.9
2022-12-11T11:58:20.298Z,2.8
2022-12-11T12:00:17.842Z,2.9
2022-12-11T12:02:23.258Z,2.9
2022-12-11T12:04:20.780Z,2.9
2022-12-11T12:06:18.292Z,2.9
2022-12-11T12:10:13.449Z,3
2022-12-11T12:12:10.807Z,3
2022-12-11T12:14:28.781Z,3
2022-12-11T12:16:44.066Z,2.9
2022-12-11T12:18:11.272Z,3
2022-12-11T12:20:08.798Z,3
2022-12-11T12:21:11.502Z,2.9
2022-12-11T12:23:09.041Z,3
2022-12-11T12:25:06.552Z,2.9
2022-12-11T12:27:17.547Z,2.8
2022-12-11T12:29:09.496Z,2.8
2022-12-11T12:31:07.045Z,2.9
2022-12-11T12:35:02.081Z,2.8
2022-12-11T12:36:59.577Z,2.8
2022-12-11T12:43:00.020Z,2.8
2022-12-11T12:44:57.656Z,2.8
2022-12-11T12:48:52.681Z,2.8
2022-12-11T12:52:47.716Z,2.9
2022-12-11T12:54:45.222Z,2.8
2022-12-11T12:56:50.633Z,2.8
2022-12-11T12:58:48.159Z,2.8
2022-12-11T13:00:45.712Z,2.9
2022-12-11T13:02:43.178Z,3
2022-12-11T13:04:56.014Z,3
2022-12-11T13:06:38.223Z,2.9
2022-12-11T13:08:35.809Z,2.9
2022-12-11T13:10:41.168Z,2.9
2022-12-11T13:12:38.672Z,2.9
2022-12-11T13:14:36.207Z,2.8
2022-12-11T13:15:38.880Z,2.7
2022-12-11T13:17:36.397Z,2.7
2022-12-11T13:29:29.348Z,2.8
2022-12-11T13:31:26.933Z,2.8
2022-12-11T13:35:21.923Z,2.8
2022-12-11T13:37:27.297Z,2.8
2022-12-11T13:39:24.839Z,2.8
2022-12-11T13:41:22.339Z,2.8
2022-12-11T13:43:21.436Z,2.9
2022-12-11T13:45:18.879Z,2.8
2022-12-11T13:47:16.426Z,2.8
2022-12-11T13:51:19.333Z,2.8
2022-12-11T13:59:09.407Z,2.8
2022-12-11T14:05:10.108Z,2.8
2022-12-11T14:11:21.524Z,2.8
2022-12-11T14:13:18.993Z,2.7
2022-12-11T14:17:21.963Z,2.8
2022-12-11T14:19:19.465Z,2.9
2022-12-11T14:23:14.495Z,2.8
2022-12-11T14:25:14.807Z,2.8
2022-12-11T14:27:09.523Z,2.8
2022-12-11T14:33:09.989Z,2.8
2022-12-11T14:35:07.514Z,2.9
2022-12-11T14:37:04.906Z,2.8
2022-12-11T14:39:02.424Z,2.8
2022-12-11T14:40:59.934Z,2.9
2022-12-11T14:45:02.872Z,2.9
2022-12-11T14:47:00.402Z,2.9
2022-12-11T14:49:00.966Z,2.9
2022-12-11T14:50:55.426Z,2.9
2022-12-11T14:52:52.922Z,2.8
2022-12-11T14:54:50.463Z,2.7
2022-12-11T14:56:47.983Z,2.8
2022-12-11T14:58:53.368Z,2.8
2022-12-11T15:00:50.878Z,2.8
2022-12-11T15:03:51.109Z,2.9
2022-12-11T15:05:48.626Z,2.9
2022-12-11T15:07:46.145Z,2.8
2022-12-11T15:09:43.643Z,2.7
2022-12-11T15:11:49.030Z,2.7
2022-12-11T15:15:44.154Z,2.8
2022-12-11T15:17:41.575Z,2.7
2022-12-11T15:19:39.091Z,2.7
2022-12-11T15:21:36.617Z,2.6
2022-12-11T15:23:34.223Z,2.6
2022-12-11T15:25:39.744Z,2.5
2022-12-11T15:27:37.258Z,2.6
2022-12-11T15:29:34.776Z,2.6
2022-12-11T15:31:32.275Z,2.7
2022-12-11T15:33:34.397Z,2.7
2022-12-11T15:35:27.330Z,2.7
2022-12-11T15:37:24.833Z,2.8
2022-12-11T15:41:27.734Z,2.7
2022-12-11T15:43:25.233Z,2.6
2022-12-11T15:45:22.789Z,2.6
2022-12-11T15:47:20.271Z,2.5
2022-12-11T15:49:17.784Z,2.6
2022-12-11T15:51:15.292Z,2.7
2022-12-11T15:53:20.820Z,2.6
2022-12-11T15:55:18.339Z,2.7
2022-12-11T15:57:15.841Z,2.7
2022-12-11T15:58:18.526Z,2.6
2022-12-11T16:00:16.041Z,2.6
2022-12-11T16:02:13.564Z,2.6
2022-12-11T16:04:11.062Z,2.6
2022-12-11T16:06:16.466Z,2.6
2022-12-11T16:08:14.001Z,2.6
2022-12-11T16:10:11.464Z,2.6
2022-12-11T16:12:08.985Z,2.6
2022-12-11T16:14:06.494Z,2.7
2022-12-11T16:16:04.047Z,2.7
2022-12-11T16:18:01.521Z,2.7
2022-12-11T16:20:06.907Z,2.8
2022-12-11T16:22:04.424Z,2.7
2022-12-11T16:24:01.930Z,2.7
2022-12-11T16:25:59.435Z,2.8
2022-12-11T16:27:56.930Z,2.7
2022-12-11T16:29:54.434Z,2.8
2022-12-11T16:31:51.945Z,2.6
2022-12-11T16:33:57.404Z,2.6
2022-12-11T16:35:54.871Z,2.7
2022-12-11T16:37:52.370Z,2.7
2022-12-11T16:41:47.395Z,2.8
2022-12-11T16:43:44.898Z,2.7
2022-12-11T16:47:47.802Z,2.6
2022-12-11T16:49:45.310Z,2.5
2022-12-11T16:51:42.798Z,2.6
2022-12-11T16:52:45.521Z,2.6
2022-12-11T16:54:42.996Z,2.5
2022-12-11T16:56:40.527Z,2.6
2022-12-11T16:58:38.044Z,2.6
2022-12-11T17:00:43.456Z,2.6
2022-12-11T17:02:41.005Z,2.6
2022-12-11T17:06:35.958Z,2.5
2022-12-11T17:10:30.969Z,2.6
2022-12-11T17:12:28.479Z,2.6
2022-12-11T17:14:33.896Z,2.7
2022-12-11T17:16:31.406Z,2.8
2022-12-11T17:18:28.933Z,2.8
2022-12-11T17:22:23.951Z,2.7
2022-12-11T17:24:21.484Z,2.7
2022-12-11T17:26:18.962Z,2.5
2022-12-11T17:30:21.926Z,2.4
2022-12-11T17:32:19.400Z,2.5
2022-12-11T17:34:16.907Z,2.6
2022-12-11T17:36:14.413Z,2.5
2022-12-11T17:38:11.957Z,2.5
2022-12-11T17:40:09.453Z,2.5
2022-12-11T17:42:14.865Z,2.5
2022-12-11T17:44:12.357Z,2.5
2022-12-11T17:46:09.915Z,2.4
2022-12-11T17:50:24.141Z,2.6
2022-12-11T17:52:21.625Z,2.5
2022-12-11T17:54:27.034Z,2.3
2022-12-11T17:56:24.510Z,2.4
2022-12-11T17:58:22.063Z,2.4
2022-12-11T18:00:19.507Z,2.5
2022-12-11T18:02:17.099Z,2.4
2022-12-11T18:04:14.574Z,2.4
2022-12-11T18:06:12.061Z,2.4
2022-12-11T18:08:17.578Z,2.3
2022-12-11T18:10:14.974Z,2.3
2022-12-11T18:12:12.499Z,2.3
2022-12-11T18:14:15.209Z,2.3
2022-12-11T18:18:05.005Z,2.2
2022-12-11T18:20:02.490Z,2.3
2022-12-11T18:22:07.871Z,2.2
2022-12-11T18:24:05.399Z,2.3
2022-12-11T18:26:02.902Z,2.3
2022-12-11T18:28:00.393Z,2.4
2022-12-11T18:29:57.888Z,2.3
2022-12-11T18:31:55.534Z,2.5
2022-12-11T18:33:53.020Z,2.4
2022-12-11T18:35:58.410Z,2.6
2022-12-11T18:39:53.582Z,2.4
2022-12-11T18:40:56.096Z,2.4
2022-12-11T18:42:53.591Z,2.4
2022-12-11T18:44:51.115Z,2.4
2022-12-11T18:46:48.672Z,2.3
2022-12-11T18:48:53.989Z,2.4
2022-12-11T18:50:51.499Z,2.3
2022-12-11T18:52:49.017Z,2.3
2022-12-11T18:54:46.523Z,2.3
2022-12-11T18:56:44.032Z,2.4
2022-12-11T18:58:41.532Z,2.3
2022-12-11T19:04:41.946Z,2.4
2022-12-11T19:06:39.445Z,2.4
2022-12-11T19:10:34.438Z,2.4
2022-12-11T19:12:31.978Z,2.5
2022-12-11T19:14:29.478Z,2.5
2022-12-11T19:16:34.965Z,2.4
2022-12-11T19:18:32.353Z,2.5
2022-12-11T19:20:48.530Z,2.4
2022-12-11T19:22:27.487Z,2.3
2022-12-11T19:24:26.563Z,2.4
2022-12-11T19:26:24.003Z,2.3
2022-12-11T19:28:21.560Z,2.4
2022-12-11T19:30:26.945Z,2.3
2022-12-11T19:32:24.576Z,2.4
2022-12-11T19:34:22.077Z,2.3
2022-12-11T19:35:24.773Z,2.3
2022-12-11T19:37:22.283Z,2.4
2022-12-11T19:39:19.806Z,2.3
2022-12-11T19:41:17.315Z,2.3
2022-12-11T19:43:22.720Z,2.3
2022-12-11T19:45:20.226Z,2.4
2022-12-11T19:51:12.842Z,2.5
2022-12-11T19:55:07.826Z,2.5
2022-12-11T19:57:13.226Z,2.5
2022-12-11T19:59:10.732Z,2.5
2022-12-11T20:01:08.298Z,2.4
2022-12-11T20:05:03.274Z,2.4
2022-12-11T20:07:00.755Z,2.4
2022-12-11T20:13:01.254Z,2.4
2022-12-11T20:14:58.733Z,2.4
2022-12-11T20:17:12.529Z,2.3
2022-12-11T20:20:51.248Z,2.3
2022-12-11T20:22:48.764Z,2.3
2022-12-11T20:24:54.158Z,2.4
2022-12-11T20:28:49.165Z,2.4
2022-12-11T20:29:51.857Z,2.4
2022-12-11T20:31:49.434Z,2.3
2022-12-11T20:37:49.776Z,2.3
2022-12-11T20:39:47.280Z,2.3
2022-12-11T20:45:39.830Z,2.4
2022-12-11T20:51:40.248Z,2.4
2022-12-11T20:53:37.692Z,2.5
2022-12-11T20:55:35.212Z,2.4
2022-12-11T20:57:32.723Z,2.5
2022-12-11T20:59:30.231Z,2.4
2022-12-11T21:01:27.774Z,2.4
2022-12-11T21:03:25.219Z,2.3
2022-12-11T21:05:30.610Z,2.3
2022-12-11T21:07:28.114Z,2.3
2022-12-11T21:09:25.630Z,2.4
2022-12-11T21:11:23.124Z,2.5
2022-12-11T21:13:20.649Z,2.4
2022-12-11T21:15:18.141Z,2.4
2022-12-11T21:17:15.623Z,2.5
2022-12-11T21:19:21.057Z,2.5
2022-12-11T21:21:18.522Z,2.4
2022-12-11T21:23:16.027Z,2.5
2022-12-11T21:25:39.312Z,2.3
2022-12-11T21:27:36.814Z,2.3
2022-12-11T21:29:34.312Z,2.4
2022-12-11T21:31:39.717Z,2.5
2022-12-11T21:33:37.244Z,2.4
2022-12-11T21:37:32.237Z,2.5
2022-12-11T21:39:31.629Z,2.4
2022-12-11T21:41:27.230Z,2.5
2022-12-11T21:43:24.779Z,2.5
2022-12-11T21:46:00.222Z,2.4
2022-12-11T21:47:27.701Z,2.4
2022-12-11T21:49:25.200Z,2.5
2022-12-11T21:51:22.683Z,2.4
2022-12-11T21:53:20.216Z,2.5
2022-12-11T21:55:17.742Z,2.5
2022-12-11T21:57:15.230Z,2.5
2022-12-11T21:59:20.622Z,2.3
2022-12-11T22:01:18.160Z,2.4
2022-12-11T22:03:15.714Z,2.4
2022-12-11T22:05:13.414Z,2.4
2022-12-11T22:07:10.687Z,2.3
2022-12-11T22:09:08.156Z,2.4
2022-12-11T22:13:11.017Z,2.3
2022-12-11T22:15:08.522Z,2.4
2022-12-11T22:18:08.728Z,2.4
2022-12-11T22:20:06.223Z,2.4
2022-12-11T22:24:01.218Z,2.4
2022-12-11T22:30:01.607Z,2.4
2022-12-11T22:31:59.118Z,2.4
2022-12-11T22:33:56.610Z,2.5
2022-12-11T22:35:54.104Z,2.5
2022-12-11T22:37:51.570Z,2.5
2022-12-11T22:39:56.990Z,2.5
2022-12-11T22:43:52.009Z,2.5
2022-12-11T22:47:47.009Z,2.6
2022-12-11T22:49:44.535Z,2.5
2022-12-11T22:51:42.051Z,2.6
2022-12-11T22:53:47.458Z,2.5
2022-12-11T22:55:44.932Z,2.5
2022-12-11T22:57:42.444Z,2.4
2022-12-11T22:59:39.940Z,2.4
2022-12-11T23:01:37.476Z,2.4
2022-12-11T23:03:35.060Z,2.3
2022-12-11T23:05:32.470Z,2.3
2022-12-11T23:07:37.925Z,2.3
2022-12-11T23:09:35.385Z,2.3
2022-12-11T23:11:32.877Z,2.4
2022-12-11T23:12:35.583Z,2.4
2022-12-11T23:18:28.124Z,2.4
2022-12-11T23:20:33.505Z,2.4
2022-12-11T23:22:31.009Z,2.4
2022-12-11T23:24:28.496Z,2.4
2022-12-11T23:26:25.988Z,2.3
2022-12-11T23:28:23.525Z,2.3
2022-12-11T23:30:21.036Z,2.3
2022-12-11T23:32:18.579Z,2.2
2022-12-11T23:34:23.966Z,2.2
2022-12-11T23:36:21.465Z,2.3
2022-12-11T23:38:18.993Z,2.2
2022-12-11T23:40:16.496Z,2.1
2022-12-11T23:42:14.042Z,2.2
2022-12-11T23:46:09.071Z,2.2
2022-12-11T23:50:11.927Z,2.3
2022-12-11T23:52:09.435Z,2.3
2022-12-11T23:54:06.938Z,2.3
2022-12-11T23:56:04.444Z,2.3
2022-12-11T23:58:01.958Z,2.2
2022-12-11T23:59:59.441Z,2.2
